createdAt,value
2019-03-06T00:01:36.469Z,93.20
2019-03-06T00:04:05.591Z,93.30
2019-03-06T00:06:34.635Z,93.30
2019-03-06T00:11:33.524Z,93.30
2019-03-06T00:16:30.768Z,93.70
2019-03-06T00:18:59.596Z,93.60
2019-03-06T00:21:28.620Z,93.90
2019-03-06T00:23:57.376Z,93.80
2019-03-06T00:26:26.229Z,94.00
2019-03-06T00:28:55.060Z,94.30
2019-03-06T00:31:23.832Z,94.50
2019-03-06T00:33:52.784Z,94.70
2019-03-06T00:36:23.674Z,94.70
2019-03-06T00:38:52.449Z,94.60
2019-03-06T00:41:29.349Z,94.60
2019-03-06T00:43:58.565Z,94.70
2019-03-06T00:46:27.353Z,94.80
2019-03-06T00:51:24.517Z,95.00
2019-03-06T00:53:53.364Z,95.00
2019-03-06T00:56:22.774Z,95.00
2019-03-06T00:58:51.555Z,95.00
2019-03-06T01:01:20.508Z,95.10
2019-03-06T01:08:46.593Z,95.10
2019-03-06T01:16:12.056Z,95.50
2019-03-06T01:21:11.889Z,95.70
2019-03-06T01:23:40.659Z,95.70
2019-03-06T01:26:09.696Z,95.70
2019-03-06T01:28:38.454Z,95.80
2019-03-06T01:31:07.223Z,95.90
2019-03-06T01:33:44.857Z,96.10
2019-03-06T01:44:44.728Z,96.40
2019-03-06T01:47:13.760Z,96.60
2019-03-06T01:49:42.537Z,96.80
2019-03-06T01:52:11.400Z,96.70
2019-03-06T01:57:08.921Z,96.80
2019-03-06T01:59:37.705Z,96.80
2019-03-06T02:02:06.746Z,96.70
2019-03-06T02:09:33.317Z,96.70
2019-03-06T02:14:30.411Z,96.70
2019-03-06T02:19:27.829Z,96.60
2019-03-06T02:21:56.688Z,96.60
2019-03-06T02:26:54.126Z,96.50
2019-03-06T02:29:22.887Z,96.50
2019-03-06T02:31:51.648Z,96.60
2019-03-06T02:34:20.564Z,96.50
2019-03-06T02:36:49.403Z,96.30
2019-03-06T02:41:46.583Z,96.50
2019-03-06T02:44:15.440Z,96.40
2019-03-06T02:49:12.520Z,96.20
2019-03-06T02:51:41.361Z,96.30
2019-03-06T02:54:10.145Z,96.40
2019-03-06T02:56:38.919Z,96.10
2019-03-06T02:59:22.648Z,96.20
2019-03-06T03:02:09.469Z,96.10
2019-03-06T03:04:57.409Z,96.20
2019-03-06T03:07:29.308Z,96.20
2019-03-06T03:12:26.763Z,96.20
2019-03-06T03:14:55.528Z,96.20
2019-03-06T03:19:52.635Z,96.10
2019-03-06T03:22:21.481Z,96.00
2019-03-06T03:27:18.650Z,96.00
2019-03-06T03:29:47.453Z,96.20
2019-03-06T03:32:16.511Z,96.10
2019-03-06T03:42:10.404Z,95.90
2019-03-06T03:44:39.504Z,95.80
2019-03-06T03:49:36.789Z,96.10
2019-03-06T03:52:05.708Z,95.80
2019-03-06T03:54:34.676Z,95.90
2019-03-06T03:57:03.764Z,95.80
2019-03-06T03:59:32.544Z,95.60
2019-03-06T04:02:01.489Z,95.70
2019-03-06T04:06:58.681Z,95.60
2019-03-06T04:16:52.666Z,95.70
2019-03-06T04:21:49.764Z,95.70
2019-03-06T04:24:18.558Z,95.60
2019-03-06T04:26:47.654Z,95.60
2019-03-06T04:29:16.519Z,95.70
2019-03-06T04:31:45.540Z,96.00
2019-03-06T04:34:14.353Z,96.00
2019-03-06T04:36:43.686Z,95.80
2019-03-06T04:39:12.605Z,95.70
2019-03-06T04:41:41.376Z,95.90
2019-03-06T04:46:38.456Z,96.30
2019-03-06T04:49:07.304Z,96.20
2019-03-06T04:51:36.269Z,96.20
2019-03-06T04:54:05.117Z,96.60
2019-03-06T04:56:33.913Z,96.30
2019-03-06T04:59:02.685Z,95.90
2019-03-06T05:01:31.700Z,95.60
2019-03-06T05:04:00.749Z,95.70
2019-03-06T05:06:29.516Z,95.60
2019-03-06T05:16:32.024Z,95.30
2019-03-06T05:21:33.684Z,95.40
2019-03-06T05:24:02.445Z,95.60
2019-03-06T05:26:31.229Z,95.70
2019-03-06T05:29:00.252Z,95.60
2019-03-06T05:31:29.280Z,95.50
2019-03-06T05:33:58.044Z,95.20
2019-03-06T05:36:53.224Z,95.30
2019-03-06T05:44:18.621Z,95.30
2019-03-06T05:49:15.781Z,95.40
2019-03-06T05:51:44.810Z,95.40
2019-03-06T05:54:13.581Z,95.30
2019-03-06T05:56:42.424Z,95.10
2019-03-06T06:01:39.512Z,95.00
2019-03-06T06:04:08.497Z,95.30
2019-03-06T06:06:37.277Z,95.10
2019-03-06T06:11:34.874Z,95.10
2019-03-06T06:14:03.969Z,94.90
2019-03-06T06:19:01.819Z,94.40
2019-03-06T06:21:50.068Z,94.50
2019-03-06T06:31:49.484Z,93.70
2019-03-06T06:34:18.434Z,93.70
2019-03-06T06:36:47.296Z,93.60
2019-03-06T06:41:44.545Z,93.10
2019-03-06T06:44:13.308Z,93.00
2019-03-06T06:52:16.116Z,92.40
2019-03-06T07:01:14.169Z,91.60
2019-03-06T07:04:29.155Z,90.70
2019-03-06T07:12:45.085Z,90.20
2019-03-06T07:20:57.850Z,89.90
2019-03-06T07:23:49.281Z,90.10
2019-03-06T07:26:43.496Z,90.00
2019-03-06T07:29:34.780Z,89.60
2019-03-06T07:32:14.712Z,89.20
2019-03-06T07:35:55.841Z,89.20
2019-03-06T07:38:24.884Z,88.70
2019-03-06T07:40:59.889Z,88.30
2019-03-06T07:43:36.081Z,87.50
2019-03-06T07:46:15.617Z,87.20
2019-03-06T07:51:46.692Z,87.20
2019-03-06T07:57:30.010Z,84.20
2019-03-06T08:02:54.537Z,83.60
2019-03-06T08:05:23.301Z,84.20
2019-03-06T08:12:57.045Z,84.20
2019-03-06T08:18:31.285Z,82.80
2019-03-06T08:21:08.208Z,83.20
2019-03-06T08:24:08.404Z,82.40
2019-03-06T08:29:05.637Z,81.60
2019-03-06T08:31:46.841Z,82.10
2019-03-06T08:34:15.718Z,80.20
2019-03-06T08:36:44.645Z,80.00
2019-03-06T08:39:21.541Z,79.80
2019-03-06T08:41:50.480Z,79.20
2019-03-06T08:44:19.504Z,78.80
2019-03-06T08:49:47.006Z,77.00
2019-03-06T08:52:29.732Z,76.90
2019-03-06T08:55:19.592Z,75.60
2019-03-06T08:57:55.157Z,75.80
2019-03-06T09:00:42.119Z,75.90
2019-03-06T09:06:23.039Z,76.30
2019-03-06T09:12:14.204Z,76.30
2019-03-06T09:15:00.826Z,75.50
2019-03-06T09:20:38.389Z,74.60
2019-03-06T09:23:24.509Z,73.50
2019-03-06T09:28:49.568Z,72.40
2019-03-06T09:34:16.044Z,71.80
2019-03-06T09:37:10.140Z,72.00
2019-03-06T09:40:00.048Z,71.80
2019-03-06T09:42:40.516Z,71.40
2019-03-06T09:45:17.593Z,72.00
2019-03-06T09:50:48.064Z,71.60
2019-03-06T09:53:36.229Z,71.40
2019-03-06T09:56:24.141Z,70.10
2019-03-06T10:02:06.656Z,70.40
2019-03-06T10:07:50.064Z,69.90
2019-03-06T10:10:46.053Z,70.80
2019-03-06T10:13:19.637Z,70.00
2019-03-06T10:15:55.186Z,69.60
2019-03-06T10:20:57.568Z,68.50
2019-03-06T10:23:26.424Z,69.20
2019-03-06T10:25:55.325Z,67.90
2019-03-06T10:28:27.772Z,68.00
2019-03-06T10:43:18.577Z,66.70
2019-03-06T10:45:47.400Z,67.10
2019-03-06T10:53:13.088Z,67.30
2019-03-06T10:55:41.868Z,66.80
2019-03-06T10:58:42.080Z,67.20
2019-03-06T11:01:11.714Z,66.70
2019-03-06T11:03:45.441Z,66.30
2019-03-06T11:06:14.845Z,65.60
2019-03-06T11:08:43.700Z,66.20
2019-03-06T11:11:12.792Z,66.00
2019-03-06T11:13:41.994Z,66.10
2019-03-06T11:16:11.574Z,65.50
2019-03-06T11:18:40.585Z,65.40
2019-03-06T11:21:09.505Z,63.80
2019-03-06T11:26:08.264Z,63.40
2019-03-06T11:28:38.458Z,62.00
2019-03-06T11:31:08.057Z,62.30
2019-03-06T11:33:37.380Z,63.00
2019-03-06T11:38:34.954Z,61.80
2019-03-06T11:48:31.105Z,59.80
2019-03-06T11:50:59.953Z,59.70
2019-03-06T11:53:28.772Z,60.20
2019-03-06T11:55:57.740Z,60.30
2019-03-06T11:58:26.777Z,60.20
2019-03-06T12:00:56.020Z,60.00
2019-03-06T12:03:25.317Z,59.90
2019-03-06T12:05:55.257Z,59.70
2019-03-06T12:10:52.703Z,59.20
2019-03-06T12:13:21.627Z,59.40
2019-03-06T12:15:51.139Z,59.60
2019-03-06T12:23:17.869Z,60.60
2019-03-06T12:25:46.784Z,61.40
2019-03-06T12:28:16.536Z,61.30
2019-03-06T12:30:45.476Z,61.40
2019-03-06T12:33:25.799Z,61.60
2019-03-06T12:35:54.724Z,61.60
2019-03-06T12:38:23.643Z,61.60
2019-03-06T12:40:52.760Z,61.80
2019-03-06T12:43:21.678Z,62.20
2019-03-06T12:46:24.412Z,62.50
2019-03-06T12:49:05.835Z,61.70
2019-03-06T12:51:36.466Z,62.30
2019-03-06T12:54:06.901Z,62.20
2019-03-06T12:56:35.977Z,62.70
2019-03-06T13:04:02.652Z,62.20
2019-03-06T13:06:31.500Z,62.20
2019-03-06T13:09:00.821Z,62.40
2019-03-06T13:16:26.553Z,62.70
2019-03-06T13:18:55.597Z,62.60
2019-03-06T13:21:24.576Z,63.30
2019-03-06T13:26:21.892Z,62.10
2019-03-06T13:28:57.069Z,62.10
2019-03-06T13:31:21.296Z,62.00
2019-03-06T13:33:56.932Z,62.40
2019-03-06T13:38:56.359Z,61.70
2019-03-06T13:41:24.933Z,61.90
2019-03-06T13:43:53.732Z,61.20
2019-03-06T13:46:22.832Z,60.80
2019-03-06T13:48:51.626Z,61.00
2019-03-06T13:51:20.460Z,61.10
2019-03-06T13:53:49.232Z,60.60
2019-03-06T13:56:18.136Z,61.40
2019-03-06T13:58:46.937Z,62.30
2019-03-06T14:01:16.133Z,62.30
2019-03-06T14:03:45.184Z,62.60
2019-03-06T14:08:42.588Z,63.80
2019-03-06T14:11:11.387Z,63.40
2019-03-06T14:16:08.589Z,63.50
2019-03-06T14:18:37.608Z,63.20
2019-03-06T14:21:06.540Z,63.80
2019-03-06T14:23:35.555Z,63.80
2019-03-06T14:26:08.373Z,64.60
2019-03-06T14:28:37.288Z,64.80
2019-03-06T14:31:06.222Z,65.90
2019-03-06T14:36:03.530Z,66.70
2019-03-06T14:38:32.601Z,66.50
2019-03-06T14:41:01.484Z,66.80
2019-03-06T14:45:59.064Z,66.70
2019-03-06T14:50:56.732Z,66.30
2019-03-06T14:53:25.916Z,65.70
2019-03-06T14:55:54.910Z,65.30
2019-03-06T14:58:23.790Z,65.70
2019-03-06T15:00:52.765Z,65.30
2019-03-06T15:03:22.054Z,64.50
2019-03-06T15:08:19.210Z,64.40
2019-03-06T15:15:44.979Z,63.10
2019-03-06T15:18:14.779Z,62.60
2019-03-06T15:20:43.584Z,62.80
2019-03-06T15:23:12.356Z,62.40
2019-03-06T15:28:09.669Z,61.80
2019-03-06T15:30:39.692Z,62.60
2019-03-06T15:33:08.570Z,62.40
2019-03-06T15:35:37.504Z,62.60
2019-03-06T15:40:36.925Z,63.40
2019-03-06T15:45:35.616Z,64.00
2019-03-06T15:48:05.425Z,63.70
2019-03-06T15:50:34.360Z,63.30
2019-03-06T15:53:03.460Z,63.40
2019-03-06T15:55:32.456Z,63.80
2019-03-06T15:58:01.296Z,64.40
2019-03-06T16:00:33.945Z,65.40
2019-03-06T16:03:04.016Z,66.00
2019-03-06T16:05:33.821Z,66.70
2019-03-06T16:08:02.972Z,67.10
2019-03-06T16:13:00.459Z,67.80
2019-03-06T16:15:29.828Z,68.20
2019-03-06T16:18:00.313Z,68.50
2019-03-06T16:20:29.235Z,68.70
2019-03-06T16:22:58.152Z,68.90
2019-03-06T16:27:58.137Z,69.20
2019-03-06T16:30:28.157Z,69.50
2019-03-06T16:32:57.062Z,70.20
2019-03-06T16:37:54.673Z,70.60
2019-03-06T16:40:24.116Z,70.80
2019-03-06T16:45:23.633Z,71.20
2019-03-06T16:52:49.656Z,72.10
2019-03-06T16:55:19.077Z,72.40
2019-03-06T16:57:48.325Z,72.30
2019-03-06T17:00:26.420Z,72.60
2019-03-06T17:02:55.576Z,73.00
2019-03-06T17:05:24.606Z,73.60
2019-03-06T17:10:23.415Z,74.20
2019-03-06T17:15:21.578Z,75.10
2019-03-06T17:22:48.920Z,76.30
2019-03-06T17:25:17.849Z,76.30
2019-03-06T17:27:46.773Z,76.10
2019-03-06T17:30:18.665Z,76.70
2019-03-06T17:35:20.396Z,77.40
2019-03-06T17:37:49.253Z,77.50
2019-03-06T17:42:46.657Z,78.90
2019-03-06T17:50:14.881Z,79.90
2019-03-06T17:52:43.889Z,80.20
2019-03-06T17:55:12.832Z,80.20
2019-03-06T17:57:41.867Z,80.10
2019-03-06T18:00:16.935Z,80.40
2019-03-06T18:05:13.144Z,80.60
2019-03-06T18:12:39.667Z,81.70
2019-03-06T18:15:10.464Z,82.00
2019-03-06T18:17:39.338Z,81.90
2019-03-06T18:20:10.085Z,82.60
2019-03-06T18:27:37.113Z,82.90
2019-03-06T18:30:06.200Z,83.50
2019-03-06T18:32:34.965Z,83.60
2019-03-06T18:37:32.229Z,83.40
2019-03-06T18:40:01.013Z,83.80
2019-03-06T18:47:26.589Z,84.40
2019-03-06T18:54:52.748Z,85.50
2019-03-06T18:59:49.981Z,85.10
2019-03-06T19:02:18.748Z,85.30
2019-03-06T19:09:44.349Z,86.30
2019-03-06T19:19:39.722Z,87.30
2019-03-06T19:32:01.953Z,88.50
2019-03-06T19:34:30.867Z,88.40
2019-03-06T19:44:24.861Z,89.10
2019-03-06T19:46:53.785Z,89.00
2019-03-06T19:51:51.688Z,89.10
2019-03-06T19:54:20.713Z,89.30
2019-03-06T20:11:51.252Z,88.70
2019-03-06T20:19:16.852Z,88.80
2019-03-06T20:29:10.716Z,89.00
2019-03-06T20:56:23.981Z,89.30
2019-03-06T20:58:53.852Z,88.40
2019-03-06T21:16:13.057Z,87.80
2019-03-06T21:18:41.880Z,87.60
2019-03-06T21:21:10.641Z,87.90
2019-03-06T21:23:39.417Z,87.60
2019-03-06T21:31:04.909Z,87.30
2019-03-06T21:33:34.057Z,87.00
2019-03-06T21:36:02.850Z,86.70
2019-03-06T21:43:28.421Z,86.90
2019-03-06T21:45:57.272Z,87.20
2019-03-06T21:53:23.449Z,87.30
2019-03-06T21:55:52.228Z,87.30
2019-03-06T21:58:21.414Z,87.50
2019-03-06T22:00:51.037Z,87.60
2019-03-06T22:03:19.998Z,87.40
2019-03-06T22:05:49.231Z,87.60
2019-03-06T22:10:46.398Z,87.90
2019-03-06T22:13:15.198Z,87.90
2019-03-06T22:20:41.105Z,88.10
2019-03-06T22:23:10.009Z,88.10
2019-03-06T22:25:38.836Z,88.40
2019-03-06T22:28:07.680Z,88.40
2019-03-06T22:30:36.521Z,88.50
2019-03-06T22:33:05.552Z,87.50
2019-03-06T22:35:34.314Z,87.50
2019-03-06T22:38:03.324Z,87.70
2019-03-06T22:43:00.656Z,87.50
2019-03-06T22:45:29.534Z,87.70
2019-03-06T22:52:55.244Z,88.10
2019-03-06T23:00:52.702Z,88.80
2019-03-06T23:05:50.298Z,88.70
2019-03-06T23:08:19.361Z,89.00
2019-03-06T23:15:45.241Z,88.70
2019-03-06T23:18:14.208Z,88.70
2019-03-06T23:20:43.089Z,89.30
2019-03-06T23:23:11.963Z,89.70
2019-03-06T23:25:41.040Z,90.00
2019-03-06T23:30:38.316Z,90.20
2019-03-06T23:33:07.162Z,90.40
2019-03-06T23:43:01.040Z,90.60
2019-03-06T23:45:29.841Z,90.60
2019-03-06T23:50:27.040Z,90.90
2019-03-06T23:53:02.574Z,91.00
2019-03-06T23:55:31.538Z,91.00
2019-03-06T23:58:00.467Z,91.00
